Main page
METAR-TAF:

METAR-TAF

Airports :

Nouakchott–Oumtounsy International Airport

Nouakchott, Mauritania

latitude: 18-18-36N, longitude: 015-58-11W, elevation: 3 m

Current weather observation

The report was made 21 minutes ago, at 21:00 UTC
Wind 14 kt from the North/Northwest
Temperature 21°C
Humidity 73%
Pressure 1010 hPa
Visibility: 7000 m

METAR: GQNO 202100Z 33014KT 7000 NSC 21/16 Q1010 NOSIG

Time: 21:21 (21:21 UTC)

Forecast

The report was made 4 hours and 21 minutes ago, at 17:00 UTC
Forecast valid from 20 at 18 UTC to 21 at 24 UTC
Wind 14 kt from the North
Visibility: 8000 m

TAF: GQNO 201700Z 2018/2124 35014KT 8000 NSC

Weather observations and forecasts of more than 4000 airports (METAR and TAF reports).

The available stations are represented by yellow and red dots on the map.

Hover mouse over dot to see the name of the station.

Then click to see weather observations and forecasts.

To change the map : click on the green buttons with a black cross to zoom in, on the green button with a dash to zoom out, or on the green arrows for adjacent maps.


METAR-TAF: